createdAt,value
2018-04-16T00:00:13.000Z,0
2018-04-16T00:00:53.518Z,0
2018-04-16T00:01:34.029Z,0
2018-04-16T00:02:14.551Z,0
2018-04-16T00:02:55.073Z,0
2018-04-16T00:03:35.615Z,0
2018-04-16T00:04:16.157Z,0
2018-04-16T00:04:56.680Z,0
2018-04-16T00:05:37.255Z,0
2018-04-16T00:06:17.752Z,0
2018-04-16T00:06:58.271Z,0
2018-04-16T00:07:38.779Z,0
2018-04-16T00:08:19.319Z,0
2018-04-16T00:08:59.836Z,0
2018-04-16T00:09:40.356Z,0
2018-04-16T00:10:20.863Z,0
2018-04-16T00:11:01.405Z,0
2018-04-16T00:11:41.926Z,0
2018-04-16T00:12:22.437Z,0
2018-04-16T00:13:03.397Z,0
2018-04-16T00:13:43.634Z,0
2018-04-16T00:14:24.149Z,0
2018-04-16T00:15:04.638Z,0
2018-04-16T00:15:45.162Z,0
2018-04-16T00:16:25.687Z,0
2018-04-16T00:17:06.207Z,0
2018-04-16T00:17:46.727Z,0
2018-04-16T00:18:27.257Z,0
2018-04-16T00:19:07.778Z,0
2018-04-16T00:19:48.285Z,0
2018-04-16T00:20:28.815Z,0
2018-04-16T00:21:09.340Z,0
2018-04-16T00:21:49.872Z,0
2018-04-16T00:22:30.391Z,0
2018-04-16T00:23:10.919Z,0
2018-04-16T00:23:51.461Z,0
2018-04-16T00:24:31.984Z,0
2018-04-16T00:25:12.499Z,0
2018-04-16T00:25:53.010Z,0
2018-04-16T00:26:33.524Z,0
2018-04-16T00:27:14.040Z,0
2018-04-16T00:27:54.558Z,0
2018-04-16T00:28:35.081Z,0
2018-04-16T00:29:15.589Z,0
2018-04-16T00:29:56.122Z,0
2018-04-16T00:30:36.643Z,0
2018-04-16T00:31:17.221Z,0
2018-04-16T00:31:57.758Z,0
2018-04-16T00:32:38.268Z,0
2018-04-16T00:33:19.325Z,0
2018-04-16T00:33:59.847Z,0
2018-04-16T00:34:40.376Z,0
2018-04-16T00:35:20.913Z,0
2018-04-16T00:36:01.430Z,0
2018-04-16T00:36:41.945Z,0
2018-04-16T00:37:22.472Z,0
2018-04-16T00:38:03.004Z,0
2018-04-16T00:38:43.540Z,0
2018-04-16T00:39:24.048Z,0
2018-04-16T00:40:04.575Z,0
2018-04-16T00:40:45.085Z,0
2018-04-16T00:41:25.607Z,0
2018-04-16T00:42:06.122Z,0
2018-04-16T00:42:46.652Z,0
2018-04-16T00:43:27.165Z,0
2018-04-16T00:44:07.685Z,0
2018-04-16T00:44:48.209Z,0
2018-04-16T00:45:28.733Z,0
2018-04-16T00:46:09.261Z,0
2018-04-16T00:46:49.758Z,0
2018-04-16T00:47:30.308Z,0
2018-04-16T00:48:10.837Z,0
2018-04-16T00:48:51.361Z,0
2018-04-16T00:49:31.873Z,0
2018-04-16T00:50:12.405Z,0
2018-04-16T00:50:52.936Z,0
2018-04-16T00:51:33.450Z,0
2018-04-16T00:52:13.980Z,0
2018-04-16T00:52:54.491Z,0
2018-04-16T00:53:35.022Z,0
2018-04-16T00:54:15.552Z,0
2018-04-16T00:54:56.071Z,0
2018-04-16T00:55:36.593Z,0
2018-04-16T00:56:17.132Z,0
2018-04-16T00:56:57.650Z,0
2018-04-16T00:57:38.180Z,0
2018-04-16T00:58:18.719Z,0
2018-04-16T00:58:59.241Z,0
2018-04-16T00:59:39.759Z,0
2018-04-16T01:00:20.275Z,0
2018-04-16T01:01:00.801Z,0
2018-04-16T01:01:41.344Z,0
2018-04-16T01:02:21.849Z,0
2018-04-16T01:03:02.386Z,0
2018-04-16T01:03:42.926Z,0
2018-04-16T01:04:23.448Z,0
2018-04-16T01:05:03.977Z,0
2018-04-16T01:05:44.494Z,0
2018-04-16T01:06:25.013Z,0
2018-04-16T01:07:05.541Z,0
2018-04-16T01:07:46.061Z,0
2018-04-16T01:08:26.607Z,0
2018-04-16T01:09:07.107Z,0
2018-04-16T01:09:47.622Z,0
2018-04-16T01:10:28.139Z,0
2018-04-16T01:11:08.698Z,0
2018-04-16T01:11:49.242Z,0
2018-04-16T01:12:29.759Z,0
2018-04-16T01:13:10.271Z,0
2018-04-16T01:13:50.790Z,0
2018-04-16T01:14:31.320Z,0
2018-04-16T01:15:11.869Z,0
2018-04-16T01:15:52.363Z,0
2018-04-16T01:16:32.888Z,0
2018-04-16T01:17:13.402Z,0
2018-04-16T01:17:53.921Z,0
2018-04-16T01:18:34.447Z,0
2018-04-16T01:19:14.975Z,0
2018-04-16T01:19:55.500Z,0
2018-04-16T01:20:36.013Z,0
2018-04-16T01:21:16.549Z,0
2018-04-16T01:21:57.075Z,0
2018-04-16T01:22:37.587Z,0
2018-04-16T01:23:18.096Z,0
2018-04-16T01:23:58.627Z,0
2018-04-16T01:24:39.144Z,0
2018-04-16T01:25:19.715Z,0
2018-04-16T01:26:00.237Z,0
2018-04-16T01:26:40.749Z,0
2018-04-16T01:27:21.269Z,0
2018-04-16T01:28:01.794Z,0
2018-04-16T01:28:42.300Z,0
2018-04-16T01:29:22.813Z,0
2018-04-16T01:30:03.344Z,0
2018-04-16T01:30:43.860Z,0
2018-04-16T01:31:24.387Z,0
2018-04-16T01:32:04.917Z,0
2018-04-16T01:32:45.445Z,0
2018-04-16T01:33:25.964Z,0
2018-04-16T01:34:06.490Z,0
2018-04-16T01:34:47.006Z,0
2018-04-16T01:35:27.545Z,0
2018-04-16T01:36:08.066Z,0
2018-04-16T01:36:48.598Z,0
2018-04-16T01:37:29.118Z,0
2018-04-16T01:38:09.642Z,0
2018-04-16T01:38:50.169Z,0
2018-04-16T01:39:30.702Z,0
2018-04-16T01:40:11.283Z,0
2018-04-16T01:40:51.813Z,0
2018-04-16T01:41:32.332Z,0
2018-04-16T01:42:12.850Z,0
2018-04-16T01:42:53.365Z,0
2018-04-16T01:43:33.907Z,0
2018-04-16T01:44:14.428Z,0
2018-04-16T01:44:54.950Z,0
2018-04-16T01:45:35.491Z,0
2018-04-16T01:46:16.012Z,0
2018-04-16T01:46:56.527Z,0
2018-04-16T01:47:37.067Z,0
2018-04-16T01:48:17.589Z,0
2018-04-16T01:48:58.094Z,0
2018-04-16T01:49:38.611Z,0
2018-04-16T01:50:19.128Z,0
2018-04-16T01:50:59.655Z,0
2018-04-16T01:51:40.170Z,0
2018-04-16T01:52:20.688Z,0
2018-04-16T01:53:01.206Z,0
2018-04-16T01:53:41.726Z,0
2018-04-16T01:54:22.244Z,0
2018-04-16T01:55:02.772Z,0
2018-04-16T01:55:43.291Z,0
2018-04-16T01:56:23.823Z,0
2018-04-16T01:57:04.343Z,0
2018-04-16T01:57:44.868Z,0
2018-04-16T01:58:25.393Z,0
2018-04-16T01:59:05.914Z,0
2018-04-16T01:59:46.429Z,0
2018-04-16T02:00:26.939Z,0
2018-04-16T02:01:07.458Z,0
2018-04-16T02:01:47.974Z,0
2018-04-16T02:02:28.496Z,0
2018-04-16T02:03:09.033Z,0
2018-04-16T02:03:49.541Z,0
2018-04-16T02:04:30.070Z,0
2018-04-16T02:05:10.593Z,0
2018-04-16T02:05:51.112Z,0
2018-04-16T02:06:31.622Z,0
2018-04-16T02:07:12.147Z,0
2018-04-16T02:07:52.661Z,0
2018-04-16T02:08:33.175Z,0
2018-04-16T02:09:13.693Z,0
2018-04-16T02:09:54.214Z,0
2018-04-16T02:10:34.731Z,0
2018-04-16T02:11:15.249Z,0
2018-04-16T02:11:55.770Z,0
2018-04-16T02:12:36.285Z,0
2018-04-16T02:13:16.795Z,0
2018-04-16T02:13:57.319Z,0
2018-04-16T02:14:37.837Z,0
2018-04-16T02:15:18.354Z,0
2018-04-16T02:15:58.881Z,0
2018-04-16T02:16:39.401Z,0
2018-04-16T02:17:19.923Z,0
2018-04-16T02:18:00.447Z,0
2018-04-16T02:18:40.980Z,0
2018-04-16T02:19:21.503Z,0
2018-04-16T02:20:02.022Z,0
2018-04-16T02:20:42.542Z,0
2018-04-16T02:21:23.086Z,0
2018-04-16T02:22:03.627Z,0
2018-04-16T02:22:44.151Z,0
2018-04-16T02:23:24.669Z,0
2018-04-16T02:24:05.176Z,0
2018-04-16T02:24:45.694Z,0
2018-04-16T02:25:26.217Z,0
2018-04-16T02:26:06.741Z,0
2018-04-16T02:26:47.268Z,0
2018-04-16T02:27:27.784Z,0
2018-04-16T02:28:08.301Z,0
2018-04-16T02:28:48.913Z,0
2018-04-16T02:29:29.418Z,0
2018-04-16T02:30:09.947Z,0
2018-04-16T02:30:50.462Z,0
2018-04-16T02:31:30.975Z,0
2018-04-16T02:32:11.503Z,0
2018-04-16T02:32:52.028Z,0
2018-04-16T02:33:32.542Z,0
2018-04-16T02:34:13.079Z,0
2018-04-16T02:34:53.609Z,0
2018-04-16T02:35:34.167Z,0
2018-04-16T02:36:14.690Z,0
2018-04-16T02:36:55.211Z,0
2018-04-16T02:37:35.732Z,0
2018-04-16T02:38:16.240Z,0
2018-04-16T02:38:56.761Z,0
2018-04-16T02:39:37.278Z,0
2018-04-16T02:40:17.836Z,0
2018-04-16T02:40:58.349Z,0
2018-04-16T02:41:38.869Z,0
2018-04-16T02:42:19.601Z,0
2018-04-16T02:43:00.114Z,0
2018-04-16T02:43:40.623Z,0
2018-04-16T02:44:21.143Z,0
2018-04-16T02:45:01.673Z,0
2018-04-16T02:45:42.297Z,0
2018-04-16T02:46:22.804Z,0
2018-04-16T02:47:03.321Z,0
2018-04-16T02:47:43.849Z,0
2018-04-16T02:48:24.361Z,0
2018-04-16T02:49:04.878Z,0
2018-04-16T02:49:45.393Z,0
2018-04-16T02:50:25.910Z,0
2018-04-16T02:51:06.445Z,0
2018-04-16T02:51:46.968Z,0
2018-04-16T02:52:27.487Z,0
2018-04-16T02:53:08.023Z,0
2018-04-16T02:53:48.545Z,0
2018-04-16T02:54:29.068Z,0
2018-04-16T02:55:09.585Z,0
2018-04-16T02:55:50.095Z,0
2018-04-16T02:56:30.615Z,0
2018-04-16T02:57:11.128Z,0
2018-04-16T02:57:51.643Z,0
2018-04-16T02:58:32.166Z,0
2018-04-16T02:59:12.684Z,0
2018-04-16T02:59:53.209Z,0
2018-04-16T03:00:33.724Z,0
2018-04-16T03:01:14.242Z,0
2018-04-16T03:01:54.772Z,0
2018-04-16T03:02:35.283Z,0
2018-04-16T03:03:15.811Z,0
2018-04-16T03:03:56.330Z,0
2018-04-16T03:04:36.847Z,0
2018-04-16T03:05:17.377Z,0
2018-04-16T03:05:57.896Z,0
2018-04-16T03:06:38.409Z,0
2018-04-16T03:07:18.929Z,0
2018-04-16T03:07:59.453Z,0
2018-04-16T03:08:40.020Z,0
2018-04-16T03:09:20.474Z,0
2018-04-16T03:10:00.998Z,0
2018-04-16T03:10:41.529Z,0
2018-04-16T03:11:22.036Z,0
2018-04-16T03:12:02.563Z,0
2018-04-16T03:12:43.081Z,0
2018-04-16T03:13:23.601Z,0
2018-04-16T03:14:04.123Z,0
2018-04-16T03:14:44.635Z,0
2018-04-16T03:15:25.152Z,0
2018-04-16T03:16:05.684Z,0
2018-04-16T03:16:46.188Z,0
2018-04-16T03:17:26.713Z,0
2018-04-16T03:18:07.236Z,0
2018-04-16T03:18:47.764Z,0
2018-04-16T03:19:28.290Z,0
2018-04-16T03:20:08.827Z,0
2018-04-16T03:20:49.344Z,0
2018-04-16T03:21:29.865Z,0
2018-04-16T03:22:10.379Z,0
2018-04-16T03:22:50.886Z,0
2018-04-16T03:23:31.421Z,0
2018-04-16T03:24:11.946Z,0
2018-04-16T03:24:52.484Z,0
2018-04-16T03:25:33.002Z,0
2018-04-16T03:26:13.527Z,0
2018-04-16T03:26:54.040Z,0
2018-04-16T03:27:34.551Z,0
2018-04-16T03:28:15.081Z,0
2018-04-16T03:28:55.610Z,0
2018-04-16T03:29:36.116Z,0
2018-04-16T03:30:16.636Z,0
2018-04-16T03:30:57.195Z,0
2018-04-16T03:31:37.712Z,0
2018-04-16T03:32:18.239Z,0
2018-04-16T03:32:58.753Z,0
2018-04-16T03:33:39.271Z,0
2018-04-16T03:34:20.148Z,0
2018-04-16T03:35:00.663Z,0
2018-04-16T03:35:41.180Z,0
2018-04-16T03:36:25.569Z,0
2018-04-16T03:37:06.096Z,0
2018-04-16T03:37:46.615Z,0
2018-04-16T03:38:27.143Z,0
2018-04-16T03:39:07.660Z,0
2018-04-16T03:39:48.180Z,0
2018-04-16T03:40:28.696Z,0
2018-04-16T03:41:09.208Z,0
2018-04-16T03:41:49.727Z,0
2018-04-16T03:42:30.243Z,0
2018-04-16T03:43:10.777Z,0
2018-04-16T03:43:51.285Z,0
2018-04-16T03:44:31.809Z,0
2018-04-16T03:45:12.325Z,0
2018-04-16T03:45:52.846Z,0
2018-04-16T03:46:33.359Z,0
2018-04-16T03:47:13.878Z,0
2018-04-16T03:47:54.399Z,0
2018-04-16T03:48:34.918Z,0
2018-04-16T03:49:15.430Z,0
2018-04-16T03:49:55.948Z,0
2018-04-16T03:50:36.466Z,0
2018-04-16T03:51:16.977Z,0
2018-04-16T03:51:57.492Z,0
2018-04-16T03:52:38.014Z,0
2018-04-16T03:53:18.529Z,0
2018-04-16T03:53:59.040Z,0
2018-04-16T03:54:39.557Z,0
2018-04-16T03:55:20.075Z,0
2018-04-16T03:56:00.589Z,0
2018-04-16T03:56:41.120Z,0
2018-04-16T03:57:21.632Z,0
2018-04-16T03:58:02.145Z,0
2018-04-16T03:58:42.663Z,0
2018-04-16T03:59:23.173Z,0
2018-04-16T04:00:03.692Z,0
2018-04-16T04:00:44.207Z,0
2018-04-16T04:01:24.729Z,0
2018-04-16T04:02:05.244Z,0
2018-04-16T04:02:45.759Z,0
2018-04-16T04:03:26.279Z,0
2018-04-16T04:04:06.794Z,0
2018-04-16T04:04:47.308Z,0
2018-04-16T04:05:27.840Z,4
2018-04-16T04:06:08.376Z,4
2018-04-16T04:06:48.927Z,4
2018-04-16T04:07:29.431Z,4
2018-04-16T04:08:09.952Z,0
2018-04-16T04:08:50.472Z,4
2018-04-16T04:09:30.987Z,4
2018-04-16T04:10:11.504Z,4
2018-04-16T04:10:52.031Z,4
2018-04-16T04:11:32.558Z,8
2018-04-16T04:12:13.088Z,4
2018-04-16T04:12:53.622Z,8
2018-04-16T04:13:34.141Z,8
2018-04-16T04:14:14.664Z,8
2018-04-16T04:14:55.216Z,8
2018-04-16T04:15:35.724Z,12
2018-04-16T04:16:16.239Z,12
2018-04-16T04:16:56.777Z,16
2018-04-16T04:17:37.284Z,16
2018-04-16T04:18:17.814Z,20
2018-04-16T04:18:58.339Z,24
2018-04-16T04:19:38.852Z,24
2018-04-16T04:20:19.391Z,28
2018-04-16T04:20:59.896Z,32
2018-04-16T04:21:40.420Z,32
2018-04-16T04:22:20.961Z,36
2018-04-16T04:23:01.475Z,44
2018-04-16T04:23:41.992Z,44
2018-04-16T04:24:22.505Z,48
2018-04-16T04:25:03.124Z,52
2018-04-16T04:25:43.568Z,56
2018-04-16T04:26:24.093Z,64
2018-04-16T04:27:04.616Z,68
2018-04-16T04:27:45.138Z,72
2018-04-16T04:28:25.662Z,80
2018-04-16T04:29:06.179Z,84
2018-04-16T04:29:46.698Z,92
2018-04-16T04:30:27.215Z,96
2018-04-16T04:31:07.738Z,104
2018-04-16T04:31:48.250Z,112
2018-04-16T04:32:28.760Z,120
2018-04-16T04:33:09.280Z,128
2018-04-16T04:33:49.804Z,136
2018-04-16T04:34:30.346Z,144
2018-04-16T04:35:10.852Z,152
2018-04-16T04:35:51.365Z,160
2018-04-16T04:36:31.873Z,168
2018-04-16T04:37:12.400Z,176
2018-04-16T04:37:52.926Z,184
2018-04-16T04:38:33.449Z,196
2018-04-16T04:39:13.965Z,204
2018-04-16T04:39:54.478Z,216
2018-04-16T04:40:34.999Z,224
2018-04-16T04:41:15.533Z,232
2018-04-16T04:41:56.045Z,244
2018-04-16T04:42:36.567Z,256
2018-04-16T04:43:17.100Z,268
2018-04-16T04:43:57.613Z,276
2018-04-16T04:44:38.140Z,288
2018-04-16T04:45:18.673Z,300
2018-04-16T04:45:59.170Z,312
2018-04-16T04:46:39.702Z,324
2018-04-16T04:47:20.216Z,336
2018-04-16T04:48:00.744Z,344
2018-04-16T04:48:41.269Z,356
2018-04-16T04:49:21.794Z,368
2018-04-16T04:50:02.320Z,376
2018-04-16T04:50:42.832Z,388
2018-04-16T04:51:23.348Z,400
2018-04-16T04:52:03.873Z,412
2018-04-16T04:52:44.383Z,424
2018-04-16T04:53:24.901Z,436
2018-04-16T04:54:05.539Z,448
2018-04-16T04:54:46.058Z,460
2018-04-16T04:55:26.583Z,472
2018-04-16T04:56:07.101Z,484
2018-04-16T04:56:47.639Z,492
2018-04-16T04:57:28.155Z,508
2018-04-16T04:58:08.697Z,520
2018-04-16T04:58:49.206Z,532
2018-04-16T04:59:29.734Z,540
2018-04-16T05:00:10.251Z,556
2018-04-16T05:00:50.781Z,568
2018-04-16T05:01:31.303Z,580
2018-04-16T05:02:11.813Z,592
2018-04-16T05:02:52.355Z,604
2018-04-16T05:03:32.873Z,620
2018-04-16T05:04:13.395Z,632
2018-04-16T05:04:53.906Z,648
2018-04-16T05:05:34.429Z,660
2018-04-16T05:06:14.942Z,676
2018-04-16T05:06:55.451Z,688
2018-04-16T05:07:35.973Z,704
2018-04-16T05:08:16.491Z,720
2018-04-16T05:08:57.007Z,736
2018-04-16T05:09:37.517Z,748
2018-04-16T05:10:18.631Z,768
2018-04-16T05:10:58.556Z,780
2018-04-16T05:11:39.078Z,796
2018-04-16T05:12:19.606Z,812
2018-04-16T05:13:00.137Z,828
2018-04-16T05:13:40.669Z,844
2018-04-16T05:14:21.195Z,856
2018-04-16T05:15:01.729Z,872
2018-04-16T05:15:42.248Z,888
2018-04-16T05:16:22.776Z,904
2018-04-16T05:17:03.302Z,920
2018-04-16T05:17:43.820Z,936
2018-04-16T05:18:24.334Z,956
2018-04-16T05:19:04.870Z,968
2018-04-16T05:19:45.384Z,988
2018-04-16T05:20:25.936Z,1004
2018-04-16T05:21:06.448Z,1020
2018-04-16T05:21:46.960Z,1040
2018-04-16T05:22:27.487Z,1060
2018-04-16T05:23:07.998Z,1080
2018-04-16T05:23:48.519Z,1104
2018-04-16T05:24:29.043Z,1124
2018-04-16T05:25:09.567Z,1136
2018-04-16T05:25:50.093Z,1156
2018-04-16T05:26:30.618Z,1176
2018-04-16T05:27:11.140Z,1196
2018-04-16T05:27:51.656Z,1216
2018-04-16T05:28:32.211Z,1240
2018-04-16T05:29:12.729Z,1264
2018-04-16T05:29:53.256Z,1284
2018-04-16T05:30:33.791Z,1312
2018-04-16T05:31:14.328Z,1344
2018-04-16T05:31:54.853Z,1380
2018-04-16T05:32:35.399Z,1408
2018-04-16T05:33:15.877Z,1440
2018-04-16T05:33:56.397Z,1460
2018-04-16T05:34:36.927Z,1480
2018-04-16T05:35:17.459Z,1500
2018-04-16T05:35:57.963Z,1528
2018-04-16T05:36:38.488Z,1560
2018-04-16T05:37:19.013Z,1588
2018-04-16T05:37:59.540Z,1648
2018-04-16T05:38:40.069Z,1728
2018-04-16T05:39:20.592Z,1776
2018-04-16T05:40:01.174Z,1856
2018-04-16T05:40:41.668Z,1940
2018-04-16T05:41:22.178Z,1984
2018-04-16T05:42:02.711Z,2048
2018-04-16T05:42:43.244Z,2124
2018-04-16T05:43:23.814Z,2184
2018-04-16T05:44:04.334Z,2244
2018-04-16T05:44:44.853Z,2292
2018-04-16T05:45:25.370Z,2336
2018-04-16T05:46:06.021Z,2384
2018-04-16T05:46:46.542Z,2432
2018-04-16T05:47:27.067Z,2476
2018-04-16T05:48:07.593Z,2560
2018-04-16T05:48:48.115Z,2632
2018-04-16T05:49:28.638Z,2668
2018-04-16T05:50:09.180Z,2692
2018-04-16T05:50:49.690Z,2684
2018-04-16T05:51:30.208Z,2684
2018-04-16T05:52:10.748Z,2716
2018-04-16T05:52:51.269Z,2756
2018-04-16T05:53:31.846Z,2772
2018-04-16T05:54:12.363Z,2748
2018-04-16T05:54:52.908Z,2772
2018-04-16T05:55:33.436Z,2848
2018-04-16T05:56:13.977Z,2992
2018-04-16T05:56:54.501Z,3096
2018-04-16T05:57:35.174Z,3092
2018-04-16T05:58:15.690Z,3084
2018-04-16T05:58:56.220Z,3040
2018-04-16T05:59:36.979Z,3060
2018-04-16T06:00:17.443Z,3064
2018-04-16T06:00:57.947Z,3060
2018-04-16T06:01:38.499Z,3072
2018-04-16T06:02:19.019Z,3040
2018-04-16T06:02:59.520Z,3028
2018-04-16T06:03:40.362Z,3004
2018-04-16T06:04:20.992Z,2988
2018-04-16T06:05:01.501Z,2972
2018-04-16T06:05:42.393Z,2952
2018-04-16T06:06:22.927Z,2944
2018-04-16T06:07:03.469Z,2956
2018-04-16T06:07:44.058Z,2944
2018-04-16T06:08:24.507Z,2936
2018-04-16T06:09:05.019Z,2904
2018-04-16T06:09:45.642Z,2892
2018-04-16T06:12:22.542Z,2876
2018-04-16T06:13:03.071Z,2888
2018-04-16T06:13:43.621Z,2892
2018-04-16T06:14:24.137Z,2912
2018-04-16T06:15:04.660Z,2968
2018-04-16T06:15:45.168Z,3004
2018-04-16T06:16:26.485Z,3020
2018-04-16T06:17:07.387Z,3036
2018-04-16T06:17:49.636Z,3088
2018-04-16T06:18:30.149Z,3100
2018-04-16T06:19:10.698Z,3144
2018-04-16T06:19:51.272Z,3156
2018-04-16T06:20:31.888Z,3172
2018-04-16T06:21:12.426Z,3172
2018-04-16T06:21:52.948Z,3204
2018-04-16T06:22:33.473Z,3252
2018-04-16T06:23:13.964Z,3248
2018-04-16T06:23:54.483Z,3220
2018-04-16T06:24:35.018Z,3188
2018-04-16T06:25:15.538Z,3160
2018-04-16T06:25:56.083Z,3124
2018-04-16T06:26:36.642Z,3116
2018-04-16T06:27:17.204Z,3084
2018-04-16T06:27:57.704Z,3104
2018-04-16T06:28:38.232Z,3104
2018-04-16T06:29:18.763Z,3104
2018-04-16T06:29:59.285Z,3124
2018-04-16T06:30:39.811Z,3128
2018-04-16T06:31:20.350Z,3148
2018-04-16T06:32:00.865Z,3168
2018-04-16T06:32:41.388Z,3196
2018-04-16T06:33:21.918Z,3200
2018-04-16T06:34:02.441Z,3236
2018-04-16T06:34:42.962Z,3268
2018-04-16T06:35:23.463Z,3308
2018-04-16T06:36:03.985Z,3344
2018-04-16T06:36:44.517Z,3396
2018-04-16T06:37:25.084Z,3420
2018-04-16T06:38:05.598Z,3484
2018-04-16T06:38:46.107Z,3568
2018-04-16T06:39:26.644Z,3656
2018-04-16T06:40:07.162Z,3736
2018-04-16T06:40:47.670Z,3816
2018-04-16T06:41:28.217Z,3908
2018-04-16T06:42:08.739Z,3972
2018-04-16T06:42:49.264Z,4032
2018-04-16T06:43:29.774Z,4092
2018-04-16T06:44:10.290Z,4128
2018-04-16T06:44:50.826Z,4164
2018-04-16T06:45:31.343Z,4168
2018-04-16T06:46:11.859Z,4168
2018-04-16T06:46:52.379Z,4152
2018-04-16T06:47:32.915Z,4112
2018-04-16T06:48:13.428Z,4060
2018-04-16T06:48:53.952Z,3904
2018-04-16T06:49:34.514Z,3892
2018-04-16T06:50:15.032Z,3852
2018-04-16T06:50:55.565Z,3796
2018-04-16T06:51:36.064Z,3704
2018-04-16T06:52:16.592Z,3636
2018-04-16T06:52:57.139Z,3500
2018-04-16T06:53:37.669Z,3416
2018-04-16T06:54:18.253Z,3364
2018-04-16T06:54:58.769Z,3304
2018-04-16T06:55:39.295Z,3236
2018-04-16T06:56:19.815Z,3212
2018-04-16T06:57:00.348Z,3200
2018-04-16T06:57:40.860Z,3160
2018-04-16T06:58:21.375Z,3176
2018-04-16T06:59:01.889Z,3252
2018-04-16T06:59:42.411Z,3336
2018-04-16T07:00:22.945Z,3492
2018-04-16T07:01:03.473Z,3620
2018-04-16T07:01:44.047Z,3752
2018-04-16T07:02:24.560Z,3920
2018-04-16T07:03:05.092Z,4172
2018-04-16T07:03:45.613Z,4572
2018-04-16T07:04:26.146Z,4692
2018-04-16T07:05:06.663Z,4848
2018-04-16T07:05:47.192Z,5032
2018-04-16T07:06:27.701Z,5116
2018-04-16T07:07:08.409Z,5232
2018-04-16T07:07:48.969Z,5268
2018-04-16T07:08:29.481Z,5268
2018-04-16T07:09:09.991Z,5284
2018-04-16T07:09:50.516Z,5296
2018-04-16T07:10:31.029Z,5288
2018-04-16T07:11:11.554Z,5312
2018-04-16T07:11:52.070Z,5316
2018-04-16T07:12:32.592Z,5344
2018-04-16T07:13:13.107Z,5368
2018-04-16T07:13:53.645Z,5392
2018-04-16T07:14:34.167Z,5400
2018-04-16T07:15:14.723Z,5408
2018-04-16T07:15:55.277Z,5416
2018-04-16T07:16:35.761Z,5432
2018-04-16T07:17:16.297Z,5408
2018-04-16T07:17:56.804Z,5424
2018-04-16T07:18:37.314Z,5420
2018-04-16T07:19:17.828Z,5416
2018-04-16T07:19:58.361Z,5388
2018-04-16T07:20:38.877Z,5376
2018-04-16T07:21:19.413Z,5372
2018-04-16T07:21:59.941Z,5348
2018-04-16T07:22:40.473Z,5348
2018-04-16T07:23:20.994Z,5320
2018-04-16T07:24:01.497Z,5304
2018-04-16T07:24:42.021Z,5284
2018-04-16T07:25:22.535Z,5268
2018-04-16T07:26:03.063Z,5240
2018-04-16T07:26:43.580Z,5212
2018-04-16T07:27:24.126Z,5200
2018-04-16T07:28:04.619Z,5164
2018-04-16T07:28:45.147Z,5132
2018-04-16T07:29:25.663Z,5100
2018-04-16T07:30:06.188Z,5084
2018-04-16T07:30:46.715Z,5036
2018-04-16T07:31:27.287Z,5024
2018-04-16T07:32:07.804Z,5016
2018-04-16T07:32:48.329Z,4976
2018-04-16T07:33:28.851Z,4920
2018-04-16T07:34:09.365Z,4900
2018-04-16T07:34:49.881Z,4880
2018-04-16T07:35:30.403Z,4852
2018-04-16T07:36:10.925Z,4832
2018-04-16T07:36:51.468Z,4804
2018-04-16T07:37:31.987Z,4788
2018-04-16T07:38:12.512Z,4748
2018-04-16T07:38:53.026Z,4708
2018-04-16T07:39:33.559Z,4672
2018-04-16T07:40:14.073Z,4640
2018-04-16T07:40:54.584Z,4612
2018-04-16T07:41:35.099Z,4592
2018-04-16T07:42:15.630Z,4560
2018-04-16T07:42:56.138Z,4524
2018-04-16T07:43:36.665Z,4488
2018-04-16T07:44:17.226Z,4492
2018-04-16T07:44:57.732Z,4476
2018-04-16T07:45:38.259Z,4388
2018-04-16T07:46:18.806Z,4372
2018-04-16T07:46:59.337Z,4316
2018-04-16T07:47:39.825Z,4320
2018-04-16T07:48:20.339Z,4332
2018-04-16T07:49:00.874Z,4316
2018-04-16T07:49:41.399Z,4300
2018-04-16T07:50:21.915Z,4256
2018-04-16T07:51:02.451Z,4260
2018-04-16T07:51:42.972Z,4236
2018-04-16T07:52:23.485Z,4212
2018-04-16T07:53:04.018Z,4180
2018-04-16T07:53:44.533Z,4136
2018-04-16T07:54:25.066Z,4036
2018-04-16T07:55:05.574Z,3908
2018-04-16T07:55:46.093Z,3768
2018-04-16T07:56:26.608Z,3648
2018-04-16T07:57:07.131Z,3556
2018-04-16T07:57:47.645Z,3508
2018-04-16T07:58:28.187Z,3472
2018-04-16T07:59:08.714Z,3468
2018-04-16T07:59:49.237Z,3464
2018-04-16T08:00:29.751Z,3452
2018-04-16T08:01:10.266Z,3444
2018-04-16T08:01:50.788Z,3440
2018-04-16T08:02:31.307Z,3432
2018-04-16T08:03:11.828Z,3412
2018-04-16T08:03:52.376Z,3400
2018-04-16T08:04:32.902Z,3388
2018-04-16T08:05:13.422Z,3368
2018-04-16T08:05:53.951Z,3348
2018-04-16T08:06:34.457Z,3336
2018-04-16T08:07:14.971Z,3320
2018-04-16T08:07:55.495Z,3300
2018-04-16T08:08:36.009Z,3272
2018-04-16T08:09:16.523Z,3248
2018-04-16T08:09:57.060Z,3228
2018-04-16T08:10:37.570Z,3200
2018-04-16T08:11:18.085Z,3172
2018-04-16T08:11:58.597Z,3144
2018-04-16T08:12:39.117Z,3120
2018-04-16T08:13:19.633Z,3100
2018-04-16T08:14:00.162Z,3072
2018-04-16T08:14:40.679Z,3048
2018-04-16T08:15:21.206Z,3028
2018-04-16T08:16:01.768Z,3012
2018-04-16T08:16:42.242Z,2996
2018-04-16T08:17:22.777Z,2984
2018-04-16T08:18:03.341Z,2976
2018-04-16T08:18:43.839Z,2972
2018-04-16T08:19:24.369Z,2964
2018-04-16T08:20:04.876Z,2964
2018-04-16T08:20:45.389Z,2956
2018-04-16T08:21:25.914Z,2948
2018-04-16T08:22:06.433Z,2940
2018-04-16T08:22:46.950Z,2932
2018-04-16T08:23:27.465Z,2924
2018-04-16T08:24:07.992Z,2920
2018-04-16T08:24:48.503Z,2908
2018-04-16T08:25:29.132Z,2908
2018-04-16T08:26:09.682Z,2900
2018-04-16T08:26:50.243Z,2900
2018-04-16T08:27:30.716Z,2896
2018-04-16T08:28:11.348Z,2892
2018-04-16T08:28:51.866Z,2892
2018-04-16T08:29:32.381Z,2888
2018-04-16T08:30:12.900Z,2888
2018-04-16T08:30:53.412Z,2880
2018-04-16T08:31:33.921Z,2872
2018-04-16T08:32:14.488Z,2872
2018-04-16T08:32:54.992Z,2872
2018-04-16T08:33:35.506Z,2868
2018-04-16T08:34:16.025Z,2864
2018-04-16T08:34:56.547Z,2868
2018-04-16T08:35:37.090Z,2864
2018-04-16T08:36:17.613Z,2860
2018-04-16T08:36:58.119Z,2852
2018-04-16T08:37:38.640Z,2844
2018-04-16T08:38:19.229Z,2836
2018-04-16T08:38:59.753Z,2832
2018-04-16T08:39:40.286Z,2836
2018-04-16T08:40:20.812Z,2836
2018-04-16T08:41:01.332Z,2836
2018-04-16T08:41:41.881Z,2832
2018-04-16T08:42:22.399Z,2832
2018-04-16T08:43:02.918Z,2828
2018-04-16T08:43:43.459Z,2828
2018-04-16T08:44:23.966Z,2832
2018-04-16T08:45:04.476Z,2840
2018-04-16T08:45:44.996Z,2840
2018-04-16T08:46:25.518Z,2840
2018-04-16T08:47:06.064Z,2836
2018-04-16T08:47:46.685Z,2832
2018-04-16T08:48:27.208Z,2832
2018-04-16T08:49:07.731Z,2828
2018-04-16T08:49:48.267Z,2820
2018-04-16T08:50:28.800Z,2820
2018-04-16T08:51:09.299Z,2820
2018-04-16T08:51:49.835Z,2812
2018-04-16T08:52:30.365Z,2804
2018-04-16T08:53:10.876Z,2804
2018-04-16T08:53:51.401Z,2800
2018-04-16T08:54:31.941Z,2804
2018-04-16T08:55:12.460Z,2800
2018-04-16T08:55:52.975Z,2804
2018-04-16T08:56:33.494Z,2808
2018-04-16T08:57:14.016Z,2808
2018-04-16T08:57:54.574Z,2812
2018-04-16T08:58:35.118Z,2820
2018-04-16T08:59:15.637Z,2828
2018-04-16T08:59:56.209Z,2828
2018-04-16T09:00:36.865Z,2836
2018-04-16T09:01:17.290Z,2840
2018-04-16T09:01:57.824Z,2856
2018-04-16T09:02:38.376Z,2860
2018-04-16T09:03:18.893Z,2876
2018-04-16T09:03:59.437Z,2884
2018-04-16T09:04:39.946Z,2892
2018-04-16T09:05:20.535Z,2900
2018-04-16T09:06:01.062Z,2896
2018-04-16T09:06:41.586Z,2900
2018-04-16T09:07:22.106Z,2896
2018-04-16T09:08:02.670Z,2892
2018-04-16T09:08:43.159Z,2892
2018-04-16T09:09:23.658Z,2900
2018-04-16T09:10:04.190Z,2908
2018-04-16T09:10:44.712Z,2912
2018-04-16T09:11:27.220Z,2916
2018-04-16T09:12:07.742Z,2928
2018-04-16T09:12:48.274Z,2932
2018-04-16T09:13:28.809Z,2944
2018-04-16T09:14:09.332Z,2952
2018-04-16T09:14:49.855Z,2956
2018-04-16T09:15:32.127Z,2980
2018-04-16T09:16:12.673Z,3020
2018-04-16T09:16:53.201Z,3076
2018-04-16T09:17:33.711Z,3132
2018-04-16T09:18:14.243Z,3172
2018-04-16T09:18:54.773Z,3188
2018-04-16T09:19:35.286Z,3168
2018-04-16T09:20:15.816Z,3124
2018-04-16T09:20:56.353Z,3088
2018-04-16T09:21:36.846Z,3048
2018-04-16T09:22:17.419Z,3036
2018-04-16T09:22:57.922Z,3056
2018-04-16T09:23:38.435Z,3072
2018-04-16T09:24:18.973Z,3108
2018-04-16T09:24:59.519Z,3136
2018-04-16T09:25:40.060Z,3116
2018-04-16T09:26:20.648Z,3120
2018-04-16T09:27:01.154Z,3108
2018-04-16T09:27:41.680Z,3128
2018-04-16T09:28:22.220Z,3160
2018-04-16T09:29:02.833Z,3180
2018-04-16T09:29:43.351Z,3232